createdAt,value
2019-05-09T00:00:29.675Z,42.5
2019-05-09T00:05:33.454Z,42.4
2019-05-09T00:10:41.166Z,42.4
2019-05-09T00:15:43.756Z,42.4
2019-05-09T00:20:45.750Z,42.3
2019-05-09T00:25:47.558Z,42.2
2019-05-09T00:30:49.372Z,42.2
2019-05-09T00:35:53.210Z,42.2
2019-05-09T00:40:58.739Z,42.1
2019-05-09T00:46:00.831Z,42.1
2019-05-09T00:51:03.405Z,42.1
2019-05-09T00:56:05.417Z,42.1
2019-05-09T01:01:07.213Z,42
2019-05-09T01:06:09.003Z,41.9
2019-05-09T01:11:12.937Z,41.9
2019-05-09T01:16:16.983Z,41.9
2019-05-09T01:21:18.724Z,41.8
2019-05-09T01:26:20.484Z,41.8
2019-05-09T01:31:23.981Z,41.7
2019-05-09T01:36:25.930Z,41.7
2019-05-09T01:41:30.966Z,41.6
2019-05-09T01:46:34.094Z,41.6
2019-05-09T01:51:35.842Z,41.6
2019-05-09T01:56:37.606Z,41.6
2019-05-09T02:01:39.349Z,41.5
2019-05-09T02:06:41.093Z,41.4
2019-05-09T02:11:45.487Z,41.4
2019-05-09T02:16:47.382Z,41.4
2019-05-09T02:21:49.127Z,41.3
2019-05-09T02:26:53.095Z,41.2
2019-05-09T02:31:55.081Z,41.2
2019-05-09T02:36:58.628Z,41.2
2019-05-09T02:42:08.656Z,41.2
2019-05-09T02:47:10.935Z,41.1
2019-05-09T02:52:12.647Z,41.1
2019-05-09T02:57:14.380Z,41
2019-05-09T03:02:19.149Z,41
2019-05-09T03:07:21.341Z,40.9
2019-05-09T03:12:30.731Z,40.9
2019-05-09T03:17:38.578Z,40.9
2019-05-09T03:22:40.444Z,40.8
2019-05-09T03:27:42.219Z,40.8
2019-05-09T03:32:43.999Z,40.8
2019-05-09T03:37:47.938Z,40.7
2019-05-09T03:42:49.852Z,40.7
2019-05-09T03:47:51.616Z,40.6
2019-05-09T03:52:53.391Z,40.6
2019-05-09T03:57:55.131Z,40.6
2019-05-09T04:02:58.002Z,40.5
2019-05-09T04:07:59.957Z,40.5
2019-05-09T04:13:01.699Z,40.4
2019-05-09T04:18:03.445Z,40.4
2019-05-09T04:23:05.212Z,40.4
2019-05-09T04:28:07.496Z,40.3
2019-05-09T04:33:09.364Z,40.3
2019-05-09T04:38:11.106Z,40.2
2019-05-09T04:43:18.466Z,40.2
2019-05-09T04:48:24.011Z,40.2
2019-05-09T04:53:25.847Z,40.1
2019-05-09T04:58:27.578Z,40.1
2019-05-09T05:03:29.316Z,40
2019-05-09T05:08:31.058Z,40
2019-05-09T05:13:33.027Z,39.9
2019-05-09T05:18:34.783Z,39.9
2019-05-09T05:23:38.053Z,39.9
2019-05-09T05:28:39.945Z,39.9
2019-05-09T05:33:41.231Z,39.8
2019-05-09T05:38:42.963Z,39.7
2019-05-09T05:43:44.965Z,39.7
2019-05-09T05:48:48.614Z,39.7
2019-05-09T05:53:50.519Z,39.7
2019-05-09T05:58:52.253Z,39.6
2019-05-09T06:03:53.958Z,39.6
2019-05-09T06:08:57.615Z,39.6
2019-05-09T06:14:06.492Z,39.5
2019-05-09T06:19:10.433Z,39.5
2019-05-09T06:24:12.113Z,39.4
2019-05-09T06:29:13.806Z,39.4
2019-05-09T06:34:15.503Z,39.4
2019-05-09T06:39:17.825Z,39.3
2019-05-09T06:44:20.622Z,39.3
2019-05-09T06:49:28.165Z,39.2
2019-05-09T06:54:32.604Z,39.2
2019-05-09T06:59:34.321Z,39.2
2019-05-09T07:04:37.986Z,39.1
2019-05-09T07:09:39.958Z,39.1
2019-05-09T07:14:42.004Z,39.1
2019-05-09T07:19:44.225Z,39
2019-05-09T07:24:48.029Z,39
2019-05-09T07:29:49.817Z,38.9
2019-05-09T07:34:51.513Z,38.9
2019-05-09T07:39:53.193Z,38.9
2019-05-09T07:44:54.905Z,38.9
2019-05-09T07:49:58.487Z,38.8
2019-05-09T07:55:00.342Z,38.8
2019-05-09T08:00:01.070Z,38.7
2019-05-09T08:05:02.967Z,38.7
2019-05-09T08:10:04.671Z,38.7
2019-05-09T08:15:13.963Z,38.6
2019-05-09T08:20:17.943Z,38.6
2019-05-09T08:25:19.609Z,38.6
2019-05-09T08:30:21.312Z,38.6
2019-05-09T08:35:23.009Z,38.5
2019-05-09T08:40:24.715Z,38.5
2019-05-09T08:45:30.335Z,38.4
2019-05-09T08:50:32.787Z,38.4
2019-05-09T08:55:34.480Z,38.4
2019-05-09T09:00:38.671Z,38.4
2019-05-09T09:05:43.229Z,38.3
2019-05-09T09:10:44.572Z,38.2
2019-05-09T09:16:04.423Z,38.2
2019-05-09T09:21:08.027Z,38.2
2019-05-09T09:26:09.895Z,38.2
2019-05-09T09:31:11.574Z,38.1
2019-05-09T09:36:13.498Z,38.1
2019-05-09T09:41:15.176Z,38.1
2019-05-09T09:46:18.133Z,38.1
2019-05-09T09:51:20.051Z,38
2019-05-09T09:56:22.569Z,38
2019-05-09T10:01:24.352Z,37.9
2019-05-09T10:06:25.023Z,37.9
2019-05-09T10:11:28.591Z,37.9
2019-05-09T10:16:32.576Z,37.9
2019-05-09T10:21:34.453Z,37.8
2019-05-09T10:26:38.803Z,37.7
2019-05-09T10:31:40.688Z,37.7
2019-05-09T10:36:42.334Z,37.7
2019-05-09T10:41:43.955Z,37.7
2019-05-09T10:46:56.661Z,37.7
2019-05-09T10:51:58.783Z,37.6
2019-05-09T10:57:00.416Z,37.6
2019-05-09T11:02:02.055Z,37.6
2019-05-09T11:07:02.751Z,37.6
2019-05-09T11:12:04.405Z,37.5
2019-05-09T11:17:11.469Z,37.4
2019-05-09T11:22:18.347Z,37.4
2019-05-09T11:27:20.097Z,37.4
2019-05-09T11:32:21.721Z,37.4
2019-05-09T11:37:23.342Z,37.4
2019-05-09T11:42:24.968Z,37.3
2019-05-09T11:47:33.209Z,37.3
2019-05-09T11:52:38.240Z,37.2
2019-05-09T11:57:40.048Z,37.2
2019-05-09T12:02:41.681Z,37.2
2019-05-09T12:07:43.314Z,37.2
2019-05-09T12:12:44.930Z,37.1
2019-05-09T12:17:53.922Z,37.1
2019-05-09T12:22:59.059Z,37.1
2019-05-09T12:28:00.664Z,37.1
2019-05-09T12:33:02.290Z,37
2019-05-09T12:38:03.913Z,37
2019-05-09T12:43:05.551Z,36.9
2019-05-09T12:48:14.070Z,36.9
2019-05-09T12:53:18.880Z,36.9
2019-05-09T12:58:20.740Z,36.9
2019-05-09T13:03:21.430Z,36.8
2019-05-09T13:08:23.059Z,36.8
2019-05-09T13:13:24.708Z,36.7
2019-05-09T13:18:29.658Z,36.7
2019-05-09T13:23:31.462Z,36.7
2019-05-09T13:28:33.082Z,36.7
2019-05-09T13:33:34.712Z,36.7
2019-05-09T13:38:54.107Z,36.6
2019-05-09T13:44:04.602Z,36.6
2019-05-09T13:49:12.105Z,36.6
2019-05-09T13:54:18.210Z,36.6
2019-05-09T13:59:20.131Z,36.6
2019-05-09T14:04:21.776Z,36.5
2019-05-09T14:09:23.426Z,36.5
2019-05-09T14:14:25.075Z,36.4
2019-05-09T14:19:39.470Z,36.4
2019-05-09T14:24:42.312Z,36.4
2019-05-09T14:29:43.930Z,36.4
2019-05-09T14:34:47.993Z,36.3
2019-05-09T14:39:57.843Z,36.3
2019-05-09T14:45:00.216Z,36.2
2019-05-09T14:50:01.874Z,36.2
2019-05-09T14:55:03.752Z,36.2
2019-05-09T15:00:07.718Z,36.2
2019-05-09T15:05:09.770Z,36.2
2019-05-09T15:10:11.777Z,36.1
2019-05-09T15:15:13.624Z,36.1
2019-05-09T15:20:15.259Z,36.1
2019-05-09T15:25:18.954Z,36.1
2019-05-09T15:30:21.236Z,36
2019-05-09T15:35:22.851Z,36
2019-05-09T15:40:24.476Z,36
2019-05-09T15:45:28.364Z,35.9
2019-05-09T15:50:30.242Z,35.9
2019-05-09T15:55:31.839Z,35.9
2019-05-09T16:00:33.549Z,35.9
2019-05-09T16:05:35.175Z,35.9
2019-05-09T16:10:37.371Z,35.8
2019-05-09T16:15:39.437Z,35.8
2019-05-09T16:20:41.459Z,35.7
2019-05-09T16:25:43.143Z,35.7
2019-05-09T16:30:44.744Z,35.7
2019-05-09T16:35:48.439Z,35.7
2019-05-09T16:40:52.374Z,35.7
2019-05-09T16:45:53.973Z,37.7
2019-05-09T16:51:01.150Z,38.9
2019-05-09T16:56:08.047Z,39.9
2019-05-09T17:01:09.956Z,40.8
2019-05-09T17:06:11.695Z,41.6
2019-05-09T17:11:13.831Z,42.3
2019-05-09T17:16:14.037Z,42.9
2019-05-09T17:21:18.571Z,43.6
2019-05-09T17:26:22.885Z,44.2
2019-05-09T17:31:23.097Z,44.6
2019-05-09T17:36:23.420Z,45.1
2019-05-09T17:41:23.666Z,45.5
2019-05-09T17:46:24.504Z,45.8
2019-05-09T17:51:32.873Z,46.1
2019-05-09T17:56:33.639Z,46.3
2019-05-09T18:01:33.930Z,46.4
2019-05-09T18:06:34.423Z,46.6
2019-05-09T18:11:34.733Z,46.6
2019-05-09T18:16:38.910Z,46.6
2019-05-09T18:21:49.765Z,46.7
2019-05-09T18:26:50.753Z,47.1
2019-05-09T18:31:51.504Z,47.4
2019-05-09T18:36:52.372Z,47.5
2019-05-09T18:41:52.793Z,47.7
2019-05-09T18:46:53.053Z,47.7
2019-05-09T18:52:03.034Z,47.5
2019-05-09T18:57:04.057Z,47.1
2019-05-09T19:02:04.330Z,47
2019-05-09T19:12:10.938Z,46.9
2019-05-09T19:17:11.243Z,46.8
2019-05-09T19:22:21.762Z,46.7
2019-05-09T19:27:22.518Z,46.7
2019-05-09T19:32:22.790Z,46.6
2019-05-09T19:37:23.311Z,46.5
2019-05-09T19:42:23.625Z,46.4
2019-05-09T19:47:23.873Z,46.4
2019-05-09T19:52:37.135Z,46.4
2019-05-09T19:57:37.724Z,46.3
2019-05-09T20:02:37.977Z,46.2
2019-05-09T20:07:38.234Z,46.2
2019-05-09T20:12:38.474Z,46.1
2019-05-09T20:17:38.715Z,46.1
2019-05-09T20:22:51.819Z,46
2019-05-09T20:27:52.885Z,45.9
2019-05-09T20:32:53.205Z,45.9
2019-05-09T20:37:53.480Z,45.8
2019-05-09T20:42:53.728Z,45.8
2019-05-09T20:47:54.190Z,45.7
2019-05-09T20:53:08.358Z,45.6
2019-05-09T20:58:09.304Z,45.5
2019-05-09T21:03:09.534Z,45.4
2019-05-09T21:08:09.751Z,45.4
2019-05-09T21:13:09.966Z,45.3
2019-05-09T21:18:10.389Z,45.2
2019-05-09T21:23:23.729Z,45.2
2019-05-09T21:28:24.495Z,45.1
2019-05-09T21:33:24.680Z,45
2019-05-09T21:38:24.939Z,44.9
2019-05-09T21:43:25.115Z,44.9
2019-05-09T21:48:25.326Z,44.8
2019-05-09T21:53:39.762Z,44.7
2019-05-09T21:58:40.903Z,44.7
2019-05-09T22:03:41.088Z,44.6
2019-05-09T22:08:41.263Z,44.6
2019-05-09T22:13:41.434Z,44.5
2019-05-09T22:18:41.608Z,44.4
2019-05-09T22:23:55.334Z,44.4
2019-05-09T22:28:55.998Z,44.2
2019-05-09T22:33:56.170Z,44.2
2019-05-09T22:38:56.351Z,44.1
2019-05-09T22:43:56.536Z,44.1
2019-05-09T22:48:56.684Z,44
2019-05-09T22:54:11.434Z,43.9
2019-05-09T22:59:11.888Z,43.9
2019-05-09T23:04:12.300Z,43.8
2019-05-09T23:09:12.480Z,43.7
2019-05-09T23:14:12.631Z,43.7
2019-05-09T23:19:12.795Z,43.6
2019-05-09T23:24:27.316Z,43.6
2019-05-09T23:29:28.148Z,43.5
2019-05-09T23:34:28.298Z,43.4
2019-05-09T23:39:28.471Z,43.3
2019-05-09T23:44:30.267Z,43.3
2019-05-09T23:49:30.415Z,43.2
2019-05-09T23:54:44.556Z,43.1
2019-05-09T23:59:47.202Z,43.1
